Time;durP1;ratioP1;P1;durP2;ratioP2;P2;SDS_P1;SDS_P2;PMS_P1;PMS_P2;Temp;Humidity;BMP_temperature;BMP_pressure;BME280_temperature;BME280_humidity;BME280_pressure;Samples;Min_cycle;Max_cycle;Signal;HPM_P1;HPM_P2
2021/10/03 00:01:03;;;;;;;16.00;10.80;;;;;;;7.60;71.12;100813.50;116919;1199;22307;-62
2021/10/03 00:03:31;;;;;;;18.40;11.20;;;;;;;7.62;71.15;100809.83;116822;1199;22332;-63
2021/10/03 00:06:00;;;;;;;17.50;11.50;;;;;;;7.63;71.04;100813.89;116685;1199;138135;-62
2021/10/03 00:08:28;;;;;;;20.20;11.20;;;;;;;7.64;71.01;100814.47;116847;1199;23427;-61
2021/10/03 00:10:57;;;;;;;14.80;10.30;;;;;;;7.64;70.81;100818.72;116825;1199;138174;-61
2021/10/03 00:13:26;;;;;;;16.60;10.50;;;;;;;7.65;70.73;100821.71;116792;1199;22344;-61
2021/10/03 00:15:54;;;;;;;14.80;10.40;;;;;;;7.64;70.62;100822.20;116855;1200;22775;-61
2021/10/03 00:18:23;;;;;;;20.70;10.90;;;;;;;7.61;70.33;100817.77;116774;1199;138083;-61
2021/10/03 00:20:51;;;;;;;17.70;11.10;;;;;;;7.54;70.32;100815.78;116860;1199;23170;-62
2021/10/03 00:23:19;;;;;;;19.80;12.10;;;;;;;7.44;70.27;100818.98;116769;1199;137954;-63
2021/10/03 00:25:48;;;;;;;21.20;13.60;;;;;;;7.31;70.47;100821.54;116883;1199;22350;-63
2021/10/03 00:28:16;;;;;;;22.60;13.10;;;;;;;7.20;70.54;100820.17;116892;1199;22208;-63
2021/10/03 00:30:44;;;;;;;21.20;13.50;;;;;;;7.10;70.66;100822.38;116743;1199;138967;-63
2021/10/03 00:33:12;;;;;;;22.50;14.30;;;;;;;7.01;71.01;100819.08;116858;1199;23636;-63
2021/10/03 00:35:41;;;;;;;20.40;12.90;;;;;;;6.94;70.87;100819.16;116708;1199;138603;-63
2021/10/03 00:38:09;;;;;;;21.90;13.20;;;;;;;6.84;70.96;100823.66;116890;1199;22692;-63
2021/10/03 00:42:50;;;;;;;19.60;13.20;;;;;;;6.67;71.20;100826.30;110547;1219;564590;-61
2021/10/03 00:45:18;;;;;;;19.00;12.20;;;;;;;6.55;71.46;100823.23;115876;1207;22322;-62
2021/10/03 00:47:48;;;;;;;20.60;12.90;;;;;;;6.46;71.47;100825.84;115862;1206;137221;-62
2021/10/03 00:50:16;;;;;;;22.80;13.60;;;;;;;6.34;71.36;100820.48;115960;1206;22234;-62
2021/10/03 00:52:45;;;;;;;22.20;13.00;;;;;;;6.25;71.59;100823.33;115838;1206;137526;-63
2021/10/03 00:55:14;;;;;;;17.50;11.10;;;;;;;6.15;71.38;100819.54;115988;1206;22319;-63
2021/10/03 00:57:42;;;;;;;17.30;12.30;;;;;;;6.08;71.75;100821.46;115902;1206;22249;-64
2021/10/03 01:00:11;;;;;;;27.60;12.40;;;;;;;5.98;71.83;100818.98;115834;1206;137824;-64
2021/10/03 01:02:40;;;;;;;21.80;12.90;;;;;;;5.90;71.99;100820.66;115948;1206;22282;-62
2021/10/03 01:05:09;;;;;;;17.30;12.00;;;;;;;5.80;72.04;100827.61;115808;1207;138658;-62
2021/10/03 01:07:37;;;;;;;21.10;12.60;;;;;;;5.71;72.22;100818.98;115938;1206;24520;-65
2021/10/03 01:10:07;;;;;;;19.60;13.00;;;;;;;5.64;72.43;100818.30;115979;1200;22405;-65
2021/10/03 01:12:36;;;;;;;26.10;14.10;;;;;;;5.57;72.40;100817.39;115895;1206;138659;-64
2021/10/03 01:15:05;;;;;;;21.80;12.50;;;;;;;5.52;72.91;100816.33;115967;1206;22315;-64
2021/10/03 01:17:39;;;;;;;26.50;14.00;;;;;;;5.47;73.20;100815.30;115862;1206;137318;-64
2021/10/03 01:20:07;;;;;;;17.40;12.40;;;;;;;5.41;73.13;100817.27;115960;1206;22305;-64
2021/10/03 01:22:38;;;;;;;18.90;12.80;;;;;;;5.36;73.25;100814.14;115815;1206;138031;-64
2021/10/03 01:25:10;;;;;;;18.50;12.90;;;;;;;5.30;73.32;100816.52;115990;1207;23171;-65
2021/10/03 01:27:38;;;;;;;19.30;14.10;;;;;;;5.25;73.86;100816.71;115919;1207;25350;-64
2021/10/03 01:30:10;;;;;;;17.20;11.50;;;;;;;5.23;73.85;100818.42;115860;1207;138034;-64
2021/10/03 01:32:38;;;;;;;17.90;12.50;;;;;;;5.20;73.89;100815.92;115903;1205;22412;-64
2021/10/03 01:35:08;;;;;;;18.50;12.40;;;;;;;5.16;73.74;100816.31;115838;1206;137680;-62
2021/10/03 01:37:36;;;;;;;20.60;13.20;;;;;;;5.10;73.71;100816.69;115904;1205;22354;-59
2021/10/03 01:40:06;;;;;;;16.60;12.80;;;;;;;5.06;73.89;100813.85;115981;1205;22378;-59
2021/10/03 01:42:35;;;;;;;19.90;12.40;;;;;;;5.03;73.92;100810.64;115875;1205;138565;-59
2021/10/03 01:45:04;;;;;;;16.80;11.50;;;;;;;4.99;74.22;100816.29;115932;1205;22977;-60
2021/10/03 01:48:15;;;;;;;18.50;12.10;;;;;;;4.94;74.19;100818.09;115875;1205;137560;-60
2021/10/03 01:50:53;;;;;;;18.00;11.80;;;;;;;4.89;74.14;100823.08;115973;1205;22250;-60
2021/10/03 01:53:29;;;;;;;17.40;12.10;;;;;;;4.83;74.05;100821.02;115871;1205;138035;-60
2021/10/03 01:55:57;;;;;;;18.00;11.60;;;;;;;4.77;74.60;100818.29;116007;1205;22326;-60
2021/10/03 01:58:29;;;;;;;19.20;12.40;;;;;;;4.71;74.30;100821.55;115934;1199;23229;-60
2021/10/03 02:01:00;;;;;;;22.50;14.50;;;;;;;4.68;74.42;100825.77;115864;1205;137258;-61
2021/10/03 02:03:29;;;;;;;17.90;12.50;;;;;;;4.63;74.66;100824.09;115926;1199;22362;-60
2021/10/03 02:05:57;;;;;;;17.20;12.30;;;;;;;4.59;75.02;100819.91;115924;1205;137669;-60
2021/10/03 02:08:25;;;;;;;24.00;14.60;;;;;;;4.56;75.17;100821.20;115982;1205;22261;-60
2021/10/03 02:10:53;;;;;;;21.00;13.60;;;;;;;4.52;75.33;100817.34;115927;1205;137936;-60
2021/10/03 02:13:22;;;;;;;19.50;13.20;;;;;;;4.48;75.13;100815.78;115958;1200;22332;-60
2021/10/03 02:15:50;;;;;;;25.20;14.30;;;;;;;4.45;75.53;100821.16;116023;1205;22335;-60
2021/10/03 02:18:19;;;;;;;27.70;15.20;;;;;;;4.43;75.83;100820.98;115862;1205;137297;-60
2021/10/03 02:20:52;;;;;;;19.50;13.30;;;;;;;4.43;76.25;100819.64;116016;1205;22147;-60
2021/10/03 02:23:20;;;;;;;24.90;14.80;;;;;;;4.45;76.14;100820.24;115850;1205;137953;-60
2021/10/03 02:25:48;;;;;;;25.20;16.20;;;;;;;4.46;76.24;100823.38;114914;1205;22466;-59
2021/10/03 02:28:18;;;;;;;32.40;15.80;;;;;;;4.45;76.20;100819.79;111793;1205;23874;-60
2021/10/03 02:30:47;;;;;;;22.30;15.00;;;;;;;4.41;76.26;100824.71;111556;1198;137486;-60
2021/10/03 02:33:15;;;;;;;24.60;14.50;;;;;;;4.39;76.41;100828.67;111835;1205;22455;-62
2021/10/03 02:35:44;;;;;;;24.00;14.10;;;;;;;4.38;76.53;100825.28;111773;1205;137732;-60
2021/10/03 02:38:15;;;;;;;34.10;16.50;;;;;;;4.36;76.42;100827.52;115868;1205;23220;-60
2021/10/03 02:40:44;;;;;;;20.40;14.20;;;;;;;4.33;76.31;100827.25;115867;1205;137796;-61
2021/10/03 02:43:13;;;;;;;25.80;16.10;;;;;;;4.32;76.59;100825.33;115972;1205;22140;-61
2021/10/03 02:45:45;;;;;;;26.10;15.60;;;;;;;4.31;76.48;100828.64;116021;1205;22315;-60
2021/10/03 02:48:14;;;;;;;22.40;14.90;;;;;;;4.30;76.67;100828.21;115824;1205;138509;-61
2021/10/03 02:50:42;;;;;;;27.70;15.80;;;;;;;4.27;76.33;100829.29;116023;1206;22330;-60
2021/10/03 02:53:10;;;;;;;28.40;16.70;;;;;;;4.23;76.18;100832.41;115818;1205;138141;-61
2021/10/03 02:55:38;;;;;;;24.30;15.00;;;;;;;4.20;76.31;100830.62;115975;1204;22374;-62
2021/10/03 02:58:06;;;;;;;24.50;15.20;;;;;;;4.18;76.22;100827.16;115953;1205;23412;-63
2021/10/03 03:00:35;;;;;;;24.40;15.70;;;;;;;4.15;76.57;100827.56;115879;1205;137986;-62
2021/10/03 03:03:04;;;;;;;26.70;15.20;;;;;;;4.12;76.19;100831.10;116040;1205;22322;-62
2021/10/03 03:05:33;;;;;;;21.90;14.90;;;;;;;4.10;76.46;100833.37;115882;1205;137545;-63
2021/10/03 03:08:02;;;;;;;21.20;14.70;;;;;;;4.08;76.72;100835.04;116068;1200;22172;-63
2021/10/03 03:10:31;;;;;;;23.00;14.50;;;;;;;4.08;76.99;100834.16;115984;1205;22692;-61
2021/10/03 03:13:00;;;;;;;22.80;14.20;;;;;;;4.09;77.10;100830.41;115905;1205;138134;-61
2021/10/03 03:15:28;;;;;;;22.00;15.10;;;;;;;4.12;77.19;100830.99;115984;1205;23306;-61
2021/10/03 03:17:57;;;;;;;27.10;14.90;;;;;;;4.13;77.05;100831.86;115919;1205;137731;-61
2021/10/03 03:20:25;;;;;;;28.10;16.10;;;;;;;4.14;76.79;100830.95;116024;1200;22387;-61
2021/10/03 03:22:53;;;;;;;26.80;15.40;;;;;;;4.12;77.03;100827.85;115925;1205;137880;-61
2021/10/03 03:25:21;;;;;;;25.70;15.60;;;;;;;4.09;76.83;100828.21;115995;1205;22412;-60
2021/10/03 03:27:50;;;;;;;27.50;15.40;;;;;;;4.08;77.27;100826.61;115988;1205;22243;-61
2021/10/03 03:30:18;;;;;;;27.30;16.20;;;;;;;4.06;77.30;100823.73;116196;1203;137670;-61
2021/10/03 03:32:46;;;;;;;27.50;16.00;;;;;;;4.06;77.55;100824.92;116311;1203;22153;-61
2021/10/03 03:35:14;;;;;;;30.60;17.50;;;;;;;4.09;78.04;100822.32;116217;1200;138335;-61
2021/10/03 03:37:42;;;;;;;27.90;16.00;;;;;;;4.15;78.36;100829.18;116347;1203;23319;-61
2021/10/03 03:40:11;;;;;;;30.00;17.10;;;;;;;4.23;79.00;100833.33;116296;1203;22252;-61
2021/10/03 03:42:40;;;;;;;26.20;17.10;;;;;;;4.33;79.65;100834.64;116166;1203;138829;-61
2021/10/03 03:45:09;;;;;;;29.20;17.10;;;;;;;4.44;79.56;100831.69;116231;1202;22327;-61
2021/10/03 03:47:37;;;;;;;27.90;16.20;;;;;;;4.53;79.43;100834.41;116186;1203;138592;-61
2021/10/03 03:50:07;;;;;;;30.40;16.90;;;;;;;4.60;79.26;100834.36;116296;1203;23415;-61
2021/10/03 03:52:36;;;;;;;25.00;15.10;;;;;;;4.64;78.91;100834.61;116252;1196;23226;-61
2021/10/03 03:55:05;;;;;;;25.60;16.00;;;;;;;4.66;78.67;100833.76;116126;1203;137905;-61
2021/10/03 03:57:34;;;;;;;28.10;18.20;;;;;;;4.67;78.78;100834.52;116300;1203;22311;-61
2021/10/03 04:00:04;;;;;;;30.40;16.90;;;;;;;4.71;79.13;100836.51;116199;1203;137950;-61
2021/10/03 04:02:32;;;;;;;28.50;17.20;;;;;;;4.76;78.96;100834.82;116280;1203;22333;-61
2021/10/03 04:05:00;;;;;;;28.90;16.60;;;;;;;4.79;79.16;100832.31;116208;1203;137629;-61
2021/10/03 04:07:31;;;;;;;29.90;17.60;;;;;;;4.86;79.11;100835.13;112105;1203;25129;-60
2021/10/03 04:10:00;;;;;;;29.00;15.80;;;;;;;4.92;79.32;100838.38;116271;1203;23107;-61
2021/10/03 04:12:33;;;;;;;30.60;16.80;;;;;;;4.95;78.88;100833.02;116135;1203;138984;-61
2021/10/03 04:15:03;;;;;;;28.70;16.80;;;;;;;4.99;79.29;100844.41;116302;1203;23299;-61
2021/10/03 04:17:31;;;;;;;28.70;16.90;;;;;;;5.01;79.06;100846.11;116179;1203;138644;-61
2021/10/03 04:20:00;;;;;;;27.70;16.50;;;;;;;5.02;78.52;100848.48;116275;1203;23170;-61
2021/10/03 04:22:28;;;;;;;25.30;15.40;;;;;;;5.04;78.35;100853.33;116303;1203;22367;-61
2021/10/03 04:24:59;;;;;;;35.80;17.10;;;;;;;5.04;78.35;100852.45;116155;1203;137785;-61
2021/10/03 04:27:27;;;;;;;28.50;16.20;;;;;;;5.04;78.29;100858.19;116311;1203;23074;-61
2021/10/03 04:29:56;;;;;;;26.30;17.10;;;;;;;5.04;77.92;100862.48;116070;1196;137991;-61
2021/10/03 04:32:25;;;;;;;26.60;16.90;;;;;;;5.05;78.00;100867.46;113773;1203;25247;-60
2021/10/03 04:34:53;;;;;;;29.40;16.90;;;;;;;5.05;78.17;100865.95;116159;1203;137948;-61
2021/10/03 04:37:23;;;;;;;30.60;18.10;;;;;;;5.05;77.73;100866.34;116272;1203;22334;-61
2021/10/03 04:39:51;;;;;;;32.90;17.70;;;;;;;5.06;78.01;100867.09;116255;1203;22325;-61
2021/10/03 04:42:20;;;;;;;24.90;15.70;;;;;;;5.06;78.13;100870.17;116176;1203;137978;-61
2021/10/03 04:44:48;;;;;;;26.60;16.70;;;;;;;5.07;77.79;100868.35;116285;1203;23123;-61
2021/10/03 04:47:16;;;;;;;24.70;17.00;;;;;;;5.09;77.91;100869.95;116101;1203;137908;-61
2021/10/03 04:49:44;;;;;;;30.80;18.50;;;;;;;5.11;77.92;100871.11;116235;1203;22319;-62
2021/10/03 04:52:12;;;;;;;28.30;17.70;;;;;;;5.12;78.09;100868.09;116250;1203;23095;-62
2021/10/03 04:54:41;;;;;;;31.80;18.80;;;;;;;5.14;77.95;100876.15;116156;1203;137943;-62
2021/10/03 04:57:09;;;;;;;28.60;17.30;;;;;;;5.17;78.06;100880.37;116287;1203;22351;-62
2021/10/03 04:59:38;;;;;;;26.90;17.50;;;;;;;5.20;78.15;100878.70;116137;1203;139000;-62
2021/10/03 05:02:11;;;;;;;27.50;17.20;;;;;;;5.23;78.42;100880.95;116277;1203;22312;-62
2021/10/03 05:04:40;;;;;;;27.60;17.40;;;;;;;5.28;78.26;100877.80;116279;1203;22879;-61
2021/10/03 05:07:08;;;;;;;27.40;17.80;;;;;;;5.35;78.34;100876.59;116151;1197;137925;-62
2021/10/03 05:09:36;;;;;;;31.00;16.30;;;;;;;5.42;78.45;100874.74;116244;1203;22525;-62
2021/10/03 05:12:10;;;;;;;32.80;18.10;;;;;;;5.47;78.54;100867.02;116107;1203;138545;-62
2021/10/03 05:14:38;;;;;;;29.80;16.90;;;;;;;5.54;78.20;100873.00;116207;1203;23149;-62
2021/10/03 05:17:06;;;;;;;29.60;16.90;;;;;;;5.60;78.20;100875.25;116148;1203;138000;-62
2021/10/03 05:19:35;;;;;;;29.80;17.50;;;;;;;5.65;78.02;100870.70;116250;1203;22142;-62
2021/10/03 05:22:04;;;;;;;28.50;17.10;;;;;;;5.70;78.29;100869.89;116246;1203;22332;-62
2021/10/03 05:24:32;;;;;;;28.40;17.40;;;;;;;5.77;78.17;100871.29;116165;1203;138235;-62
2021/10/03 05:27:00;;;;;;;31.40;18.80;;;;;;;5.82;78.08;100869.04;116251;1203;22322;-63
2021/10/03 05:29:28;;;;;;;31.20;16.80;;;;;;;5.91;78.40;100872.27;116241;1203;139089;-62
2021/10/03 05:31:57;;;;;;;27.50;17.00;;;;;;;6.00;78.44;100869.06;116207;1196;22250;-63
2021/10/03 05:34:25;;;;;;;32.60;16.50;;;;;;;6.13;78.37;100870.38;116305;1203;24171;-63
2021/10/03 05:36:53;;;;;;;31.50;15.50;;;;;;;6.27;78.14;100871.02;116175;1203;138161;-62
2021/10/03 05:39:21;;;;;;;26.40;14.20;;;;;;;6.42;77.78;100872.42;116256;1203;23876;-63
2021/10/03 05:41:49;;;;;;;28.20;14.50;;;;;;;6.54;77.46;100872.22;116156;1203;138522;-63
2021/10/03 05:44:17;;;;;;;22.80;14.50;;;;;;;6.68;77.40;100875.63;116279;1203;22344;-61
2021/10/03 05:46:45;;;;;;;30.10;16.10;;;;;;;6.83;77.07;100873.67;113374;1203;22561;-62
2021/10/03 05:49:13;;;;;;;23.10;14.90;;;;;;;6.93;76.77;100875.18;111821;1197;139137;-64
2021/10/03 05:51:43;;;;;;;23.10;13.50;;;;;;;7.04;76.35;100867.02;116183;1203;23244;-63
2021/10/03 05:54:11;;;;;;;28.80;14.30;;;;;;;7.16;76.14;100873.29;116134;1203;137891;-62
2021/10/03 05:56:40;;;;;;;24.70;14.00;;;;;;;7.27;75.63;100872.36;116309;1203;22363;-63
2021/10/03 05:59:12;;;;;;;22.80;14.10;;;;;;;7.36;75.35;100871.67;116173;1203;139351;-63
2021/10/03 06:01:40;;;;;;;25.70;13.70;;;;;;;7.45;74.82;100872.71;116234;1203;23008;-62
2021/10/03 06:04:09;;;;;;;21.30;13.80;;;;;;;7.56;75.12;100879.36;116325;1203;22498;-62
2021/10/03 06:06:37;;;;;;;32.40;15.60;;;;;;;7.67;74.89;100882.02;116145;1203;138385;-62
2021/10/03 06:09:05;;;;;;;23.60;13.90;;;;;;;7.79;74.48;100884.01;116312;1203;22347;-62
2021/10/03 06:11:35;;;;;;;26.80;15.00;;;;;;;7.89;74.27;100880.80;116174;1196;139456;-62
2021/10/03 06:14:03;;;;;;;24.60;13.50;;;;;;;8.00;74.11;100881.86;116269;1203;23049;-63
2021/10/03 06:16:33;;;;;;;29.40;14.50;;;;;;;8.10;74.03;100883.70;116245;1203;22309;-63
2021/10/03 06:19:02;;;;;;;29.50;13.80;;;;;;;8.20;73.38;100883.96;116039;1203;137748;-62
2021/10/03 06:21:30;;;;;;;25.60;14.90;;;;;;;8.29;73.34;100886.51;116300;1203;23143;-63
2021/10/03 06:23:58;;;;;;;28.60;14.80;;;;;;;8.39;73.61;100883.34;116140;1203;138698;-64
2021/10/03 06:26:26;;;;;;;32.80;15.00;;;;;;;8.47;73.31;100879.54;116313;1203;22104;-63
2021/10/03 06:28:55;;;;;;;29.30;14.50;;;;;;;8.59;73.30;100881.05;116107;1196;138658;-63
2021/10/03 06:31:23;;;;;;;33.50;14.80;;;;;;;8.70;73.22;100882.00;116333;1203;22291;-61
2021/10/03 06:33:52;;;;;;;30.30;14.80;;;;;;;8.83;72.74;100880.84;116298;1196;22299;-62
2021/10/03 06:36:20;;;;;;;25.30;14.20;;;;;;;8.95;72.55;100880.42;116170;1203;137838;-62
2021/10/03 06:38:48;;;;;;;28.10;13.50;;;;;;;9.08;72.33;100879.75;116235;1203;23153;-61
2021/10/03 06:41:16;;;;;;;30.70;12.90;;;;;;;9.19;71.74;100873.64;116145;1203;138828;-59
2021/10/03 06:43:44;;;;;;;28.50;13.00;;;;;;;9.33;71.20;100875.01;116288;1203;22313;-59
2021/10/03 06:46:14;;;;;;;21.40;10.80;;;;;;;9.44;70.66;100878.91;116275;1196;22275;-59
2021/10/03 06:48:42;;;;;;;19.40;10.80;;;;;;;9.57;69.51;100873.11;116112;1203;138007;-59
2021/10/03 06:51:12;;;;;;;24.40;11.70;;;;;;;9.70;69.03;100872.36;116268;1203;23517;-59
2021/10/03 06:53:41;;;;;;;23.80;12.30;;;;;;;9.81;68.58;100875.27;116182;1203;138015;-60
2021/10/03 06:56:10;;;;;;;19.20;11.70;;;;;;;9.93;68.43;100870.27;116164;1203;23020;-59
2021/10/03 06:58:38;;;;;;;24.10;11.10;;;;;;;10.06;67.76;100868.96;116109;1203;22346;-60
2021/10/03 07:01:07;;;;;;;21.20;11.10;;;;;;;10.16;66.63;100869.96;115984;1203;139765;-61
2021/10/03 07:03:35;;;;;;;24.50;11.50;;;;;;;10.26;65.58;100873.14;116129;1196;22296;-60
2021/10/03 07:06:04;;;;;;;20.40;10.30;;;;;;;10.36;65.46;100871.51;116045;1203;139688;-59
2021/10/03 07:08:32;;;;;;;21.30;12.20;;;;;;;10.44;65.27;100868.08;116235;1203;22245;-59
2021/10/03 07:11:00;;;;;;;21.70;11.90;;;;;;;10.51;64.72;100866.83;115831;1203;139044;-60
2021/10/03 07:13:29;;;;;;;20.90;9.70;;;;;;;10.58;64.33;100869.23;116245;1203;22324;-59
2021/10/03 07:15:57;;;;;;;22.70;11.20;;;;;;;10.65;63.04;100874.33;116177;1203;22255;-60
2021/10/03 07:18:25;;;;;;;23.40;11.80;;;;;;;10.71;61.90;100873.04;116144;1203;138843;-59
2021/10/03 07:20:53;;;;;;;30.70;12.70;;;;;;;10.76;62.28;100874.96;116097;1203;22447;-60
2021/10/03 07:23:22;;;;;;;25.40;12.60;;;;;;;10.81;62.61;100875.66;116121;1203;138382;-60
2021/10/03 07:25:50;;;;;;;20.60;10.90;;;;;;;10.87;62.60;100875.92;116280;1203;22311;-60
2021/10/03 07:28:20;;;;;;;21.00;11.30;;;;;;;10.93;61.65;100872.21;116236;1203;22390;-60
2021/10/03 07:30:48;;;;;;;21.30;10.60;;;;;;;10.99;59.89;100870.29;116135;1203;138211;-60
2021/10/03 07:33:18;;;;;;;17.50;10.30;;;;;;;11.04;60.01;100868.64;116263;1203;22347;-59
2021/10/03 07:35:46;;;;;;;22.60;10.70;;;;;;;11.11;60.74;100870.70;114971;1196;139451;-59
2021/10/03 07:38:15;;;;;;;20.20;10.00;;;;;;;11.17;60.80;100872.52;111912;1203;22498;-60
2021/10/03 07:40:46;;;;;;;23.60;10.20;;;;;;;11.22;60.82;100869.61;116185;1203;23222;-59
2021/10/03 07:43:14;;;;;;;26.60;9.20;;;;;;;11.25;60.44;100866.40;116018;1200;138010;-60
2021/10/03 07:45:42;;;;;;;16.30;9.40;;;;;;;11.31;59.15;100865.20;116233;1203;22313;-59
2021/10/03 07:48:10;;;;;;;26.50;9.90;;;;;;;11.39;58.51;100866.36;116175;1203;138315;-60
2021/10/03 07:50:38;;;;;;;14.70;8.90;;;;;;;11.48;58.49;100869.52;116265;1203;22387;-59
2021/10/03 07:53:06;;;;;;;17.60;8.50;;;;;;;11.59;57.79;100865.77;116200;1196;137955;-59
2021/10/03 07:55:34;;;;;;;16.90;8.40;;;;;;;11.69;55.83;100866.48;116302;1203;23097;-60
2021/10/03 07:58:07;;;;;;;12.50;7.80;;;;;;;11.75;54.77;100863.80;116324;1203;22227;-59
2021/10/03 08:00:35;;;;;;;19.90;10.00;;;;;;;11.77;54.67;100867.11;116187;1203;138202;-60
2021/10/03 08:03:09;;;;;;;17.60;8.50;;;;;;;11.79;54.93;100867.00;116199;1203;22328;-60
2021/10/03 08:05:38;;;;;;;15.00;7.50;;;;;;;11.84;55.21;100866.24;116174;1203;137480;-60
2021/10/03 08:08:06;;;;;;;18.90;8.10;;;;;;;11.92;55.07;100861.38;116258;1196;22398;-60
2021/10/03 08:10:34;;;;;;;13.50;8.70;;;;;;;12.00;55.46;100859.13;116227;1203;22419;-60
2021/10/03 08:13:03;;;;;;;15.80;8.00;;;;;;;12.08;55.44;100851.58;116237;1203;138231;-59
2021/10/03 08:15:31;;;;;;;19.60;8.10;;;;;;;12.15;55.14;100847.71;116231;1202;22404;-59
2021/10/03 08:17:59;;;;;;;17.50;8.20;;;;;;;12.26;54.53;100851.57;116124;1203;137351;-60
2021/10/03 08:20:27;;;;;;;12.10;6.70;;;;;;;12.34;53.35;100851.45;116220;1203;23627;-59
2021/10/03 08:22:55;;;;;;;13.80;7.90;;;;;;;12.41;53.76;100853.80;116129;1203;138466;-59
2021/10/03 08:25:24;;;;;;;18.10;6.70;;;;;;;12.43;54.49;100855.04;116260;1202;23077;-60
2021/10/03 08:27:52;;;;;;;12.10;7.00;;;;;;;12.46;54.70;100854.78;116288;1196;22329;-60
2021/10/03 08:30:20;;;;;;;15.30;7.40;;;;;;;12.51;54.29;100851.72;116141;1203;137510;-59
2021/10/03 08:32:48;;;;;;;15.50;6.70;;;;;;;12.59;53.71;100850.92;116259;1203;22370;-60
2021/10/03 08:35:16;;;;;;;10.30;5.80;;;;;;;12.70;53.08;100855.80;116160;1203;137774;-59
2021/10/03 08:37:44;;;;;;;16.30;6.40;;;;;;;12.77;52.76;100856.43;116339;1203;22146;-60
2021/10/03 08:40:13;;;;;;;12.40;6.40;;;;;;;12.81;53.19;100858.00;116290;1196;22188;-60
2021/10/03 08:42:41;;;;;;;10.30;5.70;;;;;;;12.86;53.39;100862.35;116165;1203;137462;-60
2021/10/03 08:45:10;;;;;;;11.10;6.30;;;;;;;12.93;52.81;100859.23;116198;1203;22340;-59
2021/10/03 08:47:41;;;;;;;8.60;5.10;;;;;;;13.01;52.07;100858.64;116168;1203;138350;-60
2021/10/03 08:50:11;;;;;;;13.10;5.90;;;;;;;13.06;51.06;100862.75;116224;1203;22375;-60
2021/10/03 08:52:39;;;;;;;8.10;5.40;;;;;;;13.11;51.32;100862.58;116442;1203;22282;-59
2021/10/03 08:55:08;;;;;;;15.20;6.30;;;;;;;13.17;51.48;100860.92;116370;1201;137352;-60
2021/10/03 08:57:36;;;;;;;11.20;6.50;;;;;;;13.23;49.74;100859.89;116494;1202;22334;-59
2021/10/03 09:00:17;;;;;;;9.40;4.70;;;;;;;13.27;49.23;100859.32;116280;1202;137570;-59
2021/10/03 09:02:55;;;;;;;14.00;5.90;;;;;;;13.31;49.19;100865.59;116410;1203;22981;-60
2021/10/03 09:05:25;;;;;;;10.20;5.40;;;;;;;13.35;48.71;100861.46;115872;1203;138258;-59
2021/10/03 09:08:11;;;;;;;20.50;5.80;;;;;;;13.37;48.49;100857.05;112050;1195;24222;-59
2021/10/03 09:10:54;;;;;;;13.10;6.90;;;;;;;13.39;48.14;100860.45;112229;1202;25309;-59
2021/10/03 09:13:32;;;;;;;9.30;4.80;;;;;;;13.44;48.61;100861.02;116356;1202;155003;-59
2021/10/03 09:16:32;;;;;;;8.90;4.60;;;;;;;13.46;47.73;100862.10;116481;1201;22339;-60
2021/10/03 09:19:02;;;;;;;9.90;4.70;;;;;;;13.46;48.42;100863.63;116432;1202;137233;-60
2021/10/03 09:21:31;;;;;;;8.20;5.20;;;;;;;13.47;48.10;100860.91;116448;1202;22351;-60
2021/10/03 09:24:18;;;;;;;8.00;4.70;;;;;;;13.50;48.18;100866.19;116333;1202;137647;-60
2021/10/03 09:27:07;;;;;;;7.60;4.10;;;;;;;13.53;47.97;100867.41;116465;1202;22243;-60
2021/10/03 09:29:37;;;;;;;13.80;4.90;;;;;;;13.55;46.40;100864.80;116329;1201;137737;-60
2021/10/03 09:32:09;;;;;;;8.00;4.90;;;;;;;13.57;47.26;100869.27;116497;1202;22307;-60
2021/10/03 09:34:38;;;;;;;56.00;32.00;;;;;;;13.59;47.38;100870.08;116471;1202;23045;-60
2021/10/03 09:37:26;;;;;;;73.00;36.80;;;;;;;13.63;46.09;100871.08;116389;1202;138734;-60
2021/10/03 09:40:04;;;;;;;17.10;9.80;;;;;;;13.68;46.16;100870.36;116508;1202;24036;-60
2021/10/03 09:42:33;;;;;;;11.80;7.40;;;;;;;13.69;46.58;100872.64;116351;1201;138432;-60
2021/10/03 09:45:13;;;;;;;7.40;4.30;;;;;;;13.72;46.28;100873.93;116481;1202;22309;-60
2021/10/03 09:47:42;;;;;;;6.00;4.60;;;;;;;13.74;45.54;100869.81;116408;1202;138332;-60
2021/10/03 09:50:14;;;;;;;7.10;4.10;;;;;;;13.77;45.77;100865.11;116486;1201;23263;-60
2021/10/03 09:52:42;;;;;;;6.10;3.80;;;;;;;13.80;46.19;100857.05;116421;1201;22391;-61
2021/10/03 09:55:14;;;;;;;8.50;4.60;;;;;;;13.83;46.68;100854.20;116464;1201;137567;-61
2021/10/03 09:57:42;;;;;;;10.30;4.80;;;;;;;13.89;45.42;100849.41;116456;1202;22249;-60
2021/10/03 10:00:14;;;;;;;7.80;4.60;;;;;;;13.96;45.47;100847.90;116401;1202;137811;-60
2021/10/03 10:02:44;;;;;;;5.00;3.10;;;;;;;14.03;43.24;100841.27;116502;1202;22255;-61
2021/10/03 10:05:24;;;;;;;8.00;4.30;;;;;;;14.07;44.22;100839.48;116403;1201;138389;-61
2021/10/03 10:07:53;;;;;;;10.10;3.60;;;;;;;14.12;44.27;100834.80;116533;1201;22468;-59
2021/10/03 10:10:21;;;;;;;7.30;4.10;;;;;;;14.17;41.72;100837.23;116497;1202;22412;-59
2021/10/03 10:12:59;;;;;;;8.50;3.50;;;;;;;14.18;41.19;100836.09;116221;1203;137654;-59
2021/10/03 10:15:30;;;;;;;5.40;3.20;;;;;;;14.13;41.77;100833.68;116279;1203;22318;-60
2021/10/03 10:17:59;;;;;;;9.60;3.30;;;;;;;14.13;41.04;100830.94;116316;1195;137206;-58
2021/10/03 10:20:30;;;;;;;6.70;2.90;;;;;;;14.14;41.64;100829.55;116148;1203;22372;-59
2021/10/03 10:23:09;;;;;;;11.50;3.90;;;;;;;14.14;41.70;100831.27;116286;1201;137430;-60
2021/10/03 10:25:51;;;;;;;13.10;4.20;;;;;;;14.15;42.80;100823.75;116477;1201;22902;-60
2021/10/03 10:28:29;;;;;;;12.40;3.70;;;;;;;14.17;42.73;100823.52;116472;1201;22294;-59
2021/10/03 10:31:00;;;;;;;7.10;3.60;;;;;;;14.21;42.61;100824.15;116322;1201;138488;-60
2021/10/03 10:33:51;;;;;;;10.00;4.30;;;;;;;14.22;42.96;100820.27;116467;1201;22290;-59
2021/10/03 10:36:23;;;;;;;9.70;3.80;;;;;;;14.23;43.18;100816.55;116314;1201;137753;-60
2021/10/03 10:39:09;;;;;;;9.10;3.60;;;;;;;14.28;43.82;100813.95;116433;1202;22224;-59
2021/10/03 10:41:40;;;;;;;8.70;4.00;;;;;;;14.31;44.21;100810.90;116322;1203;137549;-60
2021/10/03 10:44:28;;;;;;;11.40;3.70;;;;;;;14.33;43.88;100807.55;116466;1203;22351;-60
2021/10/03 10:47:00;;;;;;;12.90;4.80;;;;;;;14.37;43.66;100802.57;116441;1202;23083;-60
2021/10/03 10:49:37;;;;;;;6.10;4.00;;;;;;;14.38;43.91;100801.70;116358;1203;138315;-60
2021/10/03 10:52:20;;;;;;;4.90;3.50;;;;;;;14.40;44.73;100805.59;116159;1203;22379;-60
2021/10/03 10:55:09;;;;;;;12.90;4.50;;;;;;;14.41;43.94;100796.76;116302;1200;137075;-59
2021/10/03 10:57:48;;;;;;;10.50;3.70;;;;;;;14.46;43.87;100797.07;116454;1202;23232;-60
2021/10/03 11:00:19;;;;;;;7.90;3.30;;;;;;;14.48;43.69;100795.67;116305;1202;138041;-60
2021/10/03 11:02:55;;;;;;;6.90;3.50;;;;;;;14.47;43.41;100790.79;116480;1201;22262;-60
2021/10/03 11:05:32;;;;;;;8.40;4.30;;;;;;;14.45;43.39;100784.27;116333;1203;139126;-60
2021/10/03 11:08:03;;;;;;;;;;;;;;;14.44;43.74;100780.80;116503;1202;22341;-59
2021/10/03 11:10:55;;;;;;;11.30;3.90;;;;;;;14.45;44.57;100783.14;116384;1203;22380;-60
2021/10/03 11:13:41;;;;;;;10.60;5.20;;;;;;;14.50;44.79;100784.85;116260;1203;138031;-60
2021/10/03 11:16:38;;;;;;;7.00;4.90;;;;;;;14.52;44.70;100781.98;116458;1202;23264;-61
2021/10/03 11:19:11;;;;;;;6.70;4.00;;;;;;;14.55;44.23;100778.84;116331;1202;137537;-60
2021/10/03 11:21:42;;;;;;;8.40;5.40;;;;;;;14.53;44.68;100777.77;116467;1202;22235;-60
2021/10/03 11:24:14;;;;;;;6.80;4.10;;;;;;;14.53;45.54;100778.42;116339;1202;137088;-60